Time;durP1;ratioP1;P1;durP2;ratioP2;P2;SDS_P1;SDS_P2;PMS_P1;PMS_P2;Temp;Humidity;BMP_temperature;BMP_pressure;BME280_temperature;BME280_humidity;BME280_pressure;Samples;Min_cycle;Max_cycle;Signal;HPM_P1;HPM_P2
2023/09/21 00:00:20;;;;;;;109.60;104.65;;;;;;;23.73;48.58;99820.59;4964982;28;20047;-70
2023/09/21 00:02:50;;;;;;;106.25;101.63;;;;;;;23.71;48.94;99815.41;4966088;28;20050;-70
2023/09/21 00:05:23;;;;;;;111.32;106.55;;;;;;;23.69;48.54;99809.44;4962259;28;20983;-70
2023/09/21 00:07:49;;;;;;;114.53;109.45;;;;;;;23.70;48.98;99810.22;4961297;28;20117;-71
2023/09/21 00:10:15;;;;;;;110.85;105.90;;;;;;;23.69;48.64;99814.97;4961079;28;20356;-70
2023/09/21 00:12:42;;;;;;;107.88;103.18;;;;;;;23.68;48.79;99818.84;4962665;28;20050;-69
2023/09/21 00:15:09;;;;;;;113.35;108.45;;;;;;;23.68;48.50;99812.53;4960150;28;21021;-70
2023/09/21 00:17:35;;;;;;;110.90;105.80;;;;;;;23.67;48.54;99802.69;4963533;28;20041;-70
2023/09/21 00:20:12;;;;;;;109.85;104.95;;;;;;;23.67;48.61;99797.16;4960053;28;20077;-70
2023/09/21 00:22:38;;;;;;;108.40;103.60;;;;;;;23.66;48.90;99795.53;4959386;28;20403;-70
2023/09/21 00:25:09;;;;;;;106.82;102.25;;;;;;;23.65;48.57;99793.94;4963287;28;20046;-70
2023/09/21 00:27:35;;;;;;;107.43;102.63;;;;;;;23.64;48.86;99782.13;4966721;28;20031;-70
2023/09/21 00:30:05;;;;;;;108.40;103.70;;;;;;;23.65;48.60;99780.97;4954671;28;20395;-70
2023/09/21 00:32:31;;;;;;;113.82;108.85;;;;;;;23.63;48.82;99783.28;4967570;28;20035;-70
2023/09/21 00:34:56;;;;;;;109.20;104.40;;;;;;;23.63;48.72;99783.28;4967490;28;20039;-69
2023/09/21 00:37:23;;;;;;;108.03;103.32;;;;;;;23.63;48.54;99779.72;4969779;28;20117;-73
2023/09/21 00:39:49;;;;;;;108.00;103.20;;;;;;;23.61;48.65;99771.81;4966372;28;20074;-70
2023/09/21 00:42:14;;;;;;;108.38;103.57;;;;;;;23.62;48.38;99767.09;4969490;28;20087;-70
2023/09/21 00:44:40;;;;;;;109.20;104.35;;;;;;;23.61;48.42;99765.47;4961727;28;20046;-73
2023/09/21 00:47:06;;;;;;;106.68;101.97;;;;;;;23.61;48.68;99769.06;4966177;28;20546;-70
2023/09/21 00:49:32;;;;;;;109.50;104.70;;;;;;;23.61;48.76;99768.25;4966341;28;20105;-70
2023/09/21 00:51:58;;;;;;;107.03;102.32;;;;;;;23.61;48.41;99760.78;4964001;28;20122;-69
2023/09/21 00:54:25;;;;;;;107.63;103.00;;;;;;;23.59;48.50;99757.59;4967693;28;20434;-73
2023/09/21 00:56:52;;;;;;;107.88;103.07;;;;;;;23.60;48.33;99753.66;4963284;28;20039;-70
2023/09/21 00:59:19;;;;;;;108.90;104.15;;;;;;;23.60;48.47;99756.41;4969102;28;20034;-70
2023/09/21 01:01:45;;;;;;;108.50;103.78;;;;;;;23.59;48.42;99743.00;4965628;28;20037;-70
2023/09/21 01:04:12;;;;;;;107.53;102.82;;;;;;;23.58;48.64;99742.19;4967711;28;20104;-70
2023/09/21 01:06:39;;;;;;;107.07;102.38;;;;;;;23.58;48.73;99746.91;4964305;28;20094;-70
2023/09/21 01:09:06;;;;;;;111.63;106.72;;;;;;;23.58;48.82;99741.38;4971232;28;20039;-69
2023/09/21 01:11:37;;;;;;;110.45;105.63;;;;;;;23.57;48.81;99737.84;4966991;28;20094;-70
2023/09/21 01:14:02;;;;;;;109.20;104.40;;;;;;;23.57;48.55;99740.59;4966810;28;20125;-70
2023/09/21 01:16:27;;;;;;;108.13;103.40;;;;;;;23.56;48.48;99733.47;4962760;28;20122;-73
2023/09/21 01:18:53;;;;;;;107.32;102.70;;;;;;;23.54;48.62;99731.06;4965182;28;20082;-70
2023/09/21 01:21:26;;;;;;;108.40;103.68;;;;;;;23.55;48.84;99729.91;4969499;28;20125;-70
2023/09/21 01:23:52;;;;;;;110.03;105.30;;;;;;;23.54;48.70;99725.56;4968441;28;20051;-71
2023/09/21 01:26:18;;;;;;;109.82;105.05;;;;;;;23.53;48.46;99718.44;4969115;28;20138;-70
2023/09/21 01:28:47;;;;;;;110.50;105.55;;;;;;;23.53;48.73;99717.63;4968236;28;20042;-70
2023/09/21 01:31:16;;;;;;;109.30;104.30;;;;;;;23.53;48.67;99717.63;4963413;28;20081;-70
2023/09/21 01:33:44;;;;;;;109.72;104.72;;;;;;;23.53;48.37;99714.88;4966369;28;20360;-70
2023/09/21 01:36:12;;;;;;;;;;;;;;;23.46;48.61;99706.44;4966770;28;20047;-70
2023/09/21 01:38:45;;;;;;;105.55;100.85;;;;;;;23.50;48.58;99708.13;4964272;28;20269;-70
2023/09/21 01:41:15;;;;;;;105.47;100.88;;;;;;;23.49;48.56;99706.53;4963069;28;20027;-70
2023/09/21 01:43:41;;;;;;;105.93;101.28;;;;;;;23.48;48.55;99699.41;4966273;28;20119;-70
2023/09/21 01:46:07;;;;;;;108.65;103.93;;;;;;;23.48;48.37;99701.38;4961993;28;20129;-70
2023/09/21 01:48:32;;;;;;;107.68;102.95;;;;;;;23.49;48.81;99697.47;4964548;28;20500;-70
2023/09/21 01:50:59;;;;;;;106.57;101.88;;;;;;;23.49;48.34;99697.47;4961227;28;20039;-72
2023/09/21 01:53:25;;;;;;;106.68;102.03;;;;;;;23.48;48.60;99699.41;4970624;28;20496;-70
2023/09/21 01:55:50;;;;;;;111.18;106.20;;;;;;;23.48;48.73;99698.59;4966984;28;20121;-70
2023/09/21 01:58:18;;;;;;;109.15;104.35;;;;;;;23.48;48.60;99693.88;4960277;28;20089;-70
2023/09/21 02:00:49;;;;;;;108.22;103.43;;;;;;;23.47;48.71;99692.31;4964357;28;20039;-70
2023/09/21 02:03:18;;;;;;;105.85;101.25;;;;;;;23.47;48.68;99684.03;4964336;28;20038;-69
2023/09/21 02:05:46;;;;;;;107.90;103.25;;;;;;;23.47;48.35;99695.06;4965216;28;20394;-70
2023/09/21 02:08:12;;;;;;;108.68;103.57;;;;;;;23.47;48.28;99692.31;4964262;28;20101;-70
2023/09/21 02:10:40;;;;;;;110.20;105.25;;;;;;;23.46;48.52;99681.63;4962051;28;20137;-70
2023/09/21 02:13:06;;;;;;;109.63;104.82;;;;;;;23.46;48.43;99678.88;4964934;28;20097;-70
2023/09/21 02:15:34;;;;;;;107.57;102.88;;;;;;;23.45;48.26;99682.78;4964789;28;20039;-70
2023/09/21 02:18:02;;;;;;;105.47;100.93;;;;;;;23.46;48.50;99690.72;4964471;28;20476;-70
2023/09/21 02:20:32;;;;;;;105.25;100.63;;;;;;;23.45;48.56;99678.06;4964097;28;20080;-69
2023/09/21 02:23:00;;;;;;;110.13;105.32;;;;;;;23.45;48.38;99677.28;4963345;28;20391;-69
2023/09/21 02:25:27;;;;;;;106.55;101.85;;;;;;;23.43;48.70;99677.63;4963590;28;20035;-70
2023/09/21 02:27:53;;;;;;;107.53;102.85;;;;;;;23.43;48.86;99676.81;4964114;28;20041;-70
2023/09/21 02:30:23;;;;;;;107.85;103.20;;;;;;;23.43;48.75;99676.81;4965219;28;20039;-70
2023/09/21 02:32:51;;;;;;;107.50;102.82;;;;;;;23.43;48.33;99679.59;4959602;28;20066;-70
2023/09/21 02:35:19;;;;;;;106.45;101.80;;;;;;;23.42;48.57;99670.53;4969311;28;20093;-70
2023/09/21 02:37:46;;;;;;;108.30;103.60;;;;;;;23.42;48.32;99680.75;4962837;28;20113;-70
2023/09/21 02:40:16;;;;;;;107.53;102.82;;;;;;;23.42;48.65;99675.25;4962662;28;20041;-70
2023/09/21 02:42:42;;;;;;;108.93;104.05;;;;;;;23.42;48.60;99675.25;4963678;28;20043;-70
2023/09/21 02:45:12;;;;;;;108.25;103.60;;;;;;;23.41;48.49;99671.69;4965562;28;20399;-69
2023/09/21 02:47:39;;;;;;;107.32;102.70;;;;;;;23.42;48.48;99661.47;4962656;28;20043;-73
2023/09/21 02:50:14;;;;;;;108.20;103.30;;;;;;;23.41;48.29;99662.59;4965493;28;20058;-70
2023/09/21 02:53:06;;;;;;;108.97;104.28;;;;;;;23.40;48.45;99664.56;4959223;28;20045;-72
2023/09/21 02:55:33;;;;;;;106.30;101.70;;;;;;;23.40;48.17;99667.31;4961918;28;20585;-73
2023/09/21 02:58:10;;;;;;;107.15;102.45;;;;;;;23.40;48.70;99652.75;4966094;28;20062;-74
2023/09/21 03:00:42;;;;;;;108.15;103.18;;;;;;;23.39;48.71;99645.66;4965929;28;20034;-69
2023/09/21 03:03:10;;;;;;;106.43;101.80;;;;;;;23.39;48.42;99649.19;4961357;28;20066;-70
2023/09/21 03:05:38;;;;;;;103.28;98.85;;;;;;;23.40;48.35;99650.00;4964378;28;20356;-71
2023/09/21 03:08:13;;;;;;;104.88;100.28;;;;;;;23.40;48.64;99641.72;4968261;28;20038;-73
2023/09/21 03:10:53;;;;;;;109.85;105.15;;;;;;;23.40;48.78;99633.44;4965103;28;20027;-74
2023/09/21 03:13:19;;;;;;;105.53;100.93;;;;;;;23.39;48.17;99638.16;4961547;28;20450;-73
2023/09/21 03:15:47;;;;;;;105.57;100.90;;;;;;;23.39;48.68;99632.66;4965113;28;20023;-71
2023/09/21 03:18:13;;;;;;;103.70;99.20;;;;;;;23.39;48.24;99632.66;4963819;28;20200;-71
2023/09/21 03:20:40;;;;;;;104.28;99.78;;;;;;;23.38;48.48;99638.50;4965408;28;20483;-76
2023/09/21 03:23:09;;;;;;;107.32;102.63;;;;;;;23.38;48.42;99635.75;4967764;28;20126;-72
2023/09/21 03:25:42;;;;;;;105.38;100.78;;;;;;;23.38;48.47;99631.03;4958510;28;20039;-72
2023/09/21 03:28:12;;;;;;;105.05;100.22;;;;;;;23.38;48.59;99633.00;4961660;28;20059;-75
2023/09/21 03:30:42;;;;;;;108.43;103.68;;;;;;;23.37;48.46;99621.19;4964074;28;20046;-71
2023/09/21 03:33:09;;;;;;;105.43;100.82;;;;;;;23.38;48.23;99630.25;4967830;28;20041;-72
2023/09/21 03:35:35;;;;;;;106.03;101.43;;;;;;;23.37;48.21;99631.41;4963429;28;20031;-70
2023/09/21 03:38:00;;;;;;;106.88;102.07;;;;;;;23.37;48.28;99626.69;4957442;28;20848;-73
2023/09/21 03:40:26;;;;;;;105.75;101.15;;;;;;;23.37;48.42;99629.44;4972053;28;20385;-74
2023/09/21 03:42:55;;;;;;;106.63;101.72;;;;;;;23.37;48.58;99614.88;4970460;28;20470;-73
2023/09/21 03:45:24;;;;;;;105.45;100.95;;;;;;;23.37;48.77;99623.16;4968378;28;20051;-71
2023/09/21 03:47:51;;;;;;;104.93;100.32;;;;;;;23.36;48.51;99625.13;4969719;28;20464;-72
2023/09/21 03:50:18;;;;;;;105.65;100.97;;;;;;;23.36;48.54;99629.78;4966402;28;20058;-73
2023/09/21 03:52:43;;;;;;;106.80;102.18;;;;;;;23.35;48.65;99620.75;4969079;28;20054;-78
2023/09/21 03:55:10;;;;;;;102.90;98.40;;;;;;;23.34;48.57;99627.41;4965777;28;20039;-72
2023/09/21 03:57:37;;;;;;;104.53;100.03;;;;;;;23.35;48.59;99631.75;4966953;28;20530;-73
2023/09/21 04:00:12;;;;;;;107.65;102.80;;;;;;;23.34;48.45;99635.69;4968605;28;21447;-72
2023/09/21 04:02:38;;;;;;;107.07;102.38;;;;;;;23.35;48.63;99630.97;4964168;28;20039;-72
2023/09/21 04:05:03;;;;;;;106.95;102.25;;;;;;;23.34;48.25;99624.66;4972297;28;20047;-72
2023/09/21 04:07:29;;;;;;;105.50;100.90;;;;;;;23.33;48.57;99623.03;4970576;28;20039;-73
2023/09/21 04:09:55;;;;;;;106.85;102.05;;;;;;;23.32;48.20;99627.75;4961648;28;20062;-73
2023/09/21 04:12:20;;;;;;;101.70;97.22;;;;;;;23.31;48.29;99622.63;4968135;28;20039;-72
2023/09/21 04:14:46;;;;;;;104.55;99.93;;;;;;;23.31;48.59;99614.34;4969433;28;20445;-75
2023/09/21 04:17:11;;;;;;;106.47;101.88;;;;;;;23.30;48.34;99610.00;4970741;28;20043;-72
2023/09/21 04:19:37;;;;;;;107.85;102.97;;;;;;;23.31;48.24;99617.13;4962257;28;20039;-72
2023/09/21 04:22:02;;;;;;;104.78;100.18;;;;;;;23.30;48.35;99610.00;4964381;28;20042;-70
2023/09/21 04:24:28;;;;;;;103.88;99.40;;;;;;;23.30;48.33;99598.97;4969300;28;20510;-71
2023/09/21 04:26:53;;;;;;;107.70;102.90;;;;;;;23.29;48.34;99594.63;4964110;28;20046;-72
2023/09/21 04:29:18;;;;;;;106.30;101.70;;;;;;;23.28;48.77;99607.59;4969312;28;20114;-73
2023/09/21 04:31:44;;;;;;;104.93;100.32;;;;;;;23.28;48.60;99596.59;4966502;28;20035;-73
2023/09/21 04:34:10;;;;;;;105.43;100.85;;;;;;;23.27;48.58;99597.72;4964102;28;20474;-73
2023/09/21 04:36:35;;;;;;;102.35;97.85;;;;;;;23.26;48.62;99590.63;4963338;28;21657;-72
2023/09/21 04:39:00;;;;;;;105.03;100.43;;;;;;;23.26;48.62;99593.38;4968713;28;20034;-74
2023/09/21 04:41:27;;;;;;;103.07;98.50;;;;;;;23.26;48.68;99611.88;4970610;28;20487;-69
2023/09/21 04:43:54;;;;;;;104.90;100.03;;;;;;;23.25;48.60;99596.47;4967760;28;20035;-70
2023/09/21 04:46:19;;;;;;;103.32;98.82;;;;;;;23.24;48.49;99606.69;4970412;28;20109;-70
2023/09/21 04:48:45;;;;;;;102.43;97.93;;;;;;;23.23;48.52;99599.56;4966671;28;20475;-70
2023/09/21 04:51:12;;;;;;;104.03;99.45;;;;;;;23.24;48.49;99601.19;4966020;28;20035;-70
2023/09/21 04:53:38;;;;;;;104.70;100.15;;;;;;;23.24;48.71;99592.13;4964791;28;20400;-70
2023/09/21 04:56:04;;;;;;;102.75;98.25;;;;;;;23.22;48.47;99592.47;4966641;28;20039;-70
2023/09/21 04:58:29;;;;;;;101.90;97.05;;;;;;;23.22;48.66;99594.44;4968238;28;20131;-70
2023/09/21 05:00:54;;;;;;;99.97;95.60;;;;;;;23.21;48.60;99593.66;4963034;28;20372;-70
2023/09/21 05:03:20;;;;;;;98.85;94.53;;;;;;;23.22;48.33;99592.47;4967761;28;20064;-70
2023/09/21 05:05:47;;;;;;;99.13;94.55;;;;;;;23.22;48.45;99588.94;4966685;28;20035;-70
2023/09/21 05:08:12;;;;;;;100.10;95.60;;;;;;;23.21;48.39;99590.91;4965601;28;20713;-71
2023/09/21 05:10:40;;;;;;;101.05;96.55;;;;;;;23.21;48.63;99593.66;4967091;28;20121;-72
2023/09/21 05:13:06;;;;;;;99.90;95.47;;;;;;;23.21;48.64;99592.81;4964621;28;20034;-71
2023/09/21 05:15:31;;;;;;;100.25;95.65;;;;;;;23.21;48.31;99592.81;4965630;28;20741;-71
2023/09/21 05:17:57;;;;;;;98.93;94.57;;;;;;;23.20;48.55;99602.25;4968114;28;20471;-71
2023/09/21 05:20:22;;;;;;;99.15;94.75;;;;;;;23.20;48.82;99592.03;4965174;28;20054;-70
2023/09/21 05:22:47;;;;;;;98.30;94.00;;;;;;;23.19;48.39;99593.19;4962556;28;20110;-73
2023/09/21 05:25:13;;;;;;;99.13;94.63;;;;;;;23.20;48.72;99594.00;4966366;28;20233;-73
2023/09/21 05:27:41;;;;;;;99.22;94.82;;;;;;;23.20;48.80;99596.75;4969815;28;20031;-72
2023/09/21 05:30:09;;;;;;;103.00;98.00;;;;;;;23.20;48.41;99594.00;4962358;28;20043;-72
2023/09/21 05:32:35;;;;;;;100.55;96.15;;;;;;;23.18;48.74;99599.06;4965945;28;20062;-72
2023/09/21 05:35:02;;;;;;;101.90;97.30;;;;;;;23.19;48.74;99592.41;4965331;28;20064;-74
2023/09/21 05:37:29;;;;;;;97.72;93.45;;;;;;;23.19;48.54;99590.44;4980111;28;20034;-74
2023/09/21 05:39:54;;;;;;;98.28;93.95;;;;;;;23.19;48.40;99586.91;4960640;28;20067;-72
2023/09/21 05:42:23;;;;;;;104.00;99.20;;;;;;;23.18;48.70;99591.56;4962085;28;20063;-72
2023/09/21 05:44:49;;;;;;;98.60;94.25;;;;;;;23.17;48.73;99595.50;4963432;28;20031;-73
2023/09/21 05:47:14;;;;;;;100.93;96.43;;;;;;;23.17;48.76;99597.47;4961306;28;20121;-72
2023/09/21 05:49:41;;;;;;;100.03;95.63;;;;;;;23.17;48.42;99590.00;4961026;28;20138;-73
2023/09/21 05:52:13;;;;;;;99.78;95.38;;;;;;;23.15;48.27;99592.28;4966130;28;20030;-69
2023/09/21 05:54:42;;;;;;;99.32;94.93;;;;;;;23.16;48.83;99595.84;4964011;28;20038;-74
2023/09/21 05:57:08;;;;;;;98.22;93.93;;;;;;;23.16;48.54;99590.34;4965329;28;20559;-71
2023/09/21 05:59:33;;;;;;;98.28;93.95;;;;;;;23.14;48.66;99598.19;4973187;28;20123;-71
2023/09/21 06:01:59;;;;;;;100.75;96.35;;;;;;;23.14;48.63;99598.97;4963674;28;20061;-79
2023/09/21 06:04:25;;;;;;;99.45;94.70;;;;;;;23.14;48.67;99593.47;4969122;28;20042;-73
2023/09/21 06:06:54;;;;;;;102.70;98.20;;;;;;;23.14;48.58;99590.72;4964397;28;20122;-71
2023/09/21 06:09:19;;;;;;;101.47;97.00;;;;;;;23.14;48.66;99587.16;4965872;28;20661;-71
2023/09/21 06:11:45;;;;;;;99.30;94.90;;;;;;;23.15;48.85;99591.50;4961007;28;20058;-73
2023/09/21 06:14:11;;;;;;;103.30;98.57;;;;;;;23.14;48.76;99587.94;4962666;28;20102;-71
2023/09/21 06:16:36;;;;;;;100.63;96.03;;;;;;;23.13;48.45;99594.59;4969525;28;20455;-71
2023/09/21 06:19:02;;;;;;;101.18;96.65;;;;;;;23.12;48.46;99590.25;4967516;28;20059;-74
2023/09/21 06:21:28;;;;;;;100.40;95.80;;;;;;;23.12;48.49;99595.78;4960867;28;20046;-72
2023/09/21 06:23:54;;;;;;;97.63;93.30;;;;;;;23.12;48.81;99593.00;4966793;28;20038;-72
2023/09/21 06:26:22;;;;;;;103.32;98.72;;;;;;;23.13;48.88;99599.31;4969357;28;20527;-72
2023/09/21 06:28:48;;;;;;;98.50;94.18;;;;;;;23.11;48.68;99596.94;4965648;28;20035;-72
2023/09/21 06:31:14;;;;;;;100.65;96.15;;;;;;;23.11;48.68;99606.00;4960572;28;21519;-71
2023/09/21 06:33:41;;;;;;;101.00;96.57;;;;;;;23.10;48.75;99612.63;4968503;28;20579;-76
2023/09/21 06:36:15;;;;;;;102.32;97.63;;;;;;;23.09;48.96;99613.81;4962738;28;20034;-74
2023/09/21 06:38:42;;;;;;;99.53;95.15;;;;;;;23.10;48.64;99603.59;4961092;28;20137;-70
2023/09/21 06:41:08;;;;;;;101.80;97.18;;;;;;;23.09;48.75;99608.28;4966487;28;20045;-71
2023/09/21 06:43:35;;;;;;;99.47;95.07;;;;;;;23.09;48.96;99607.50;4967377;28;20035;-71
2023/09/21 06:46:01;;;;;;;100.63;96.13;;;;;;;23.08;48.73;99611.41;4965996;28;20051;-72
2023/09/21 06:48:26;;;;;;;99.53;95.20;;;;;;;23.08;48.73;99605.88;4963140;28;20038;-73
2023/09/21 06:50:52;;;;;;;100.07;95.55;;;;;;;23.07;48.62;99610.59;4964538;28;20035;-72
2023/09/21 06:53:17;;;;;;;99.03;94.53;;;;;;;23.08;48.86;99608.63;4958025;28;20049;-71
2023/09/21 06:55:43;;;;;;;100.68;96.28;;;;;;;23.07;48.79;99618.88;4967792;28;20398;-79
2023/09/21 06:58:08;;;;;;;105.03;100.45;;;;;;;23.07;48.64;99612.56;4966975;28;20038;-72
2023/09/21 07:00:37;;;;;;;102.70;98.10;;;;;;;23.07;48.96;99612.56;4957745;28;20047;-74
2023/09/21 07:03:02;;;;;;;97.78;93.38;;;;;;;23.05;48.68;99618.41;4963204;28;20443;-72
2023/09/21 07:05:28;;;;;;;98.47;93.78;;;;;;;23.06;48.42;99633.00;4959183;28;20038;-71
2023/09/21 07:07:54;;;;;;;98.97;94.53;;;;;;;23.06;48.65;99644.03;4965158;28;20066;-73
2023/09/21 07:10:19;;;;;;;99.95;95.57;;;;;;;23.06;48.73;99638.50;4958531;28;20385;-74
2023/09/21 07:12:45;;;;;;;99.82;95.40;;;;;;;23.05;48.82;99645.16;4958355;28;20030;-72
2023/09/21 07:15:10;;;;;;;102.85;98.28;;;;;;;23.05;49.13;99639.66;4964037;28;20735;-73
2023/09/21 07:17:36;;;;;;;99.63;95.07;;;;;;;23.04;49.07;99647.13;4959715;28;20082;-72
2023/09/21 07:20:04;;;;;;;98.35;94.03;;;;;;;23.04;48.62;99649.09;4948646;28;20042;-72
2023/09/21 07:22:30;;;;;;;97.40;93.15;;;;;;;23.02;48.67;99652.16;4970697;28;20050;-72
2023/09/21 07:24:55;;;;;;;98.88;94.57;;;;;;;23.02;48.71;99660.44;4963336;28;20039;-72
2023/09/21 07:27:21;;;;;;;97.95;93.55;;;;;;;23.02;48.57;99657.69;4962593;28;20039;-72
2023/09/21 07:29:47;;;;;;;99.55;95.05;;;;;;;23.02;48.80;99662.41;4957257;28;20038;-71
2023/09/21 07:32:12;;;;;;;100.88;96.40;;;;;;;23.01;48.77;99658.84;4962525;28;20045;-72
2023/09/21 07:34:38;;;;;;;97.70;93.40;;;;;;;23.00;49.12;99657.22;4961401;28;20030;-74
2023/09/21 07:37:03;;;;;;;99.80;95.40;;;;;;;23.00;48.97;99654.47;4964986;28;20035;-74
2023/09/21 07:39:29;;;;;;;99.93;95.50;;;;;;;22.99;48.96;99661.16;4957766;28;20035;-74
2023/09/21 07:41:55;;;;;;;98.57;94.18;;;;;;;22.98;48.92;99662.31;4965944;28;20384;-71
2023/09/21 07:44:22;;;;;;;98.75;94.35;;;;;;;22.99;49.21;99665.88;4959290;28;20659;-73
2023/09/21 07:46:51;;;;;;;100.03;95.63;;;;;;;22.97;48.78;99668.13;4962857;28;20035;-72
2023/09/21 07:49:17;;;;;;;102.22;97.63;;;;;;;22.98;49.17;99675.25;4962704;28;20412;-70
2023/09/21 07:51:43;;;;;;;97.47;93.25;;;;;;;22.97;49.05;99673.63;4961834;28;20077;-71
2023/09/21 07:54:08;;;;;;;99.68;95.28;;;;;;;22.96;48.59;99674.81;4960581;28;20090;-71
2023/09/21 07:56:36;;;;;;;100.88;96.47;;;;;;;22.96;49.19;99688.56;4960115;28;20042;-73
2023/09/21 07:59:01;;;;;;;96.38;91.97;;;;;;;22.96;48.85;99688.56;4967272;28;20042;-71
2023/09/21 08:01:27;;;;;;;100.60;96.20;;;;;;;22.94;49.25;99694.41;4962170;28;20039;-71
2023/09/21 08:03:54;;;;;;;95.60;91.32;;;;;;;22.95;49.14;99696.00;4966360;28;20439;-71
2023/09/21 08:06:21;;;;;;;101.88;97.38;;;;;;;22.93;49.08;99684.56;4961583;28;20058;-73
2023/09/21 08:08:47;;;;;;;97.30;93.00;;;;;;;22.92;49.26;99688.47;4962024;28;20034;-75
2023/09/21 08:11:13;;;;;;;96.88;92.68;;;;;;;22.93;48.86;99700.28;4960606;28;20090;-73
2023/09/21 08:13:39;;;;;;;95.75;91.53;;;;;;;22.92;49.15;99699.47;4965971;28;20900;-73
2023/09/21 08:16:05;;;;;;;97.78;93.53;;;;;;;22.92;49.25;99696.72;4957167;28;20038;-73
2023/09/21 08:18:30;;;;;;;103.65;99.15;;;;;;;22.91;49.35;99697.88;4960057;28;20039;-72
2023/09/21 08:20:55;;;;;;;98.80;94.50;;;;;;;22.90;48.82;99699.81;4955394;28;20475;-73
2023/09/21 08:23:21;;;;;;;98.68;94.28;;;;;;;22.90;48.87;99693.50;4964692;28;20035;-73
2023/09/21 08:25:46;;;;;;;102.05;97.57;;;;;;;22.88;49.18;99693.88;4966793;28;20043;-72
2023/09/21 08:28:12;;;;;;;97.00;92.80;;;;;;;22.88;48.99;99704.06;4961258;28;20156;-81
2023/09/21 08:30:38;;;;;;;97.18;92.78;;;;;;;22.87;49.03;99697.75;4975702;28;20035;-75
2023/09/21 08:33:07;;;;;;;98.85;94.45;;;;;;;22.86;49.32;99707.19;4964565;28;20551;-70
2023/09/21 08:35:32;;;;;;;99.07;94.68;;;;;;;22.85;49.37;99702.03;4961892;28;20035;-69
2023/09/21 08:37:59;;;;;;;100.03;95.63;;;;;;;22.84;49.25;99701.22;4970825;28;20038;-72
2023/09/21 08:40:25;;;;;;;97.47;93.07;;;;;;;22.84;48.97;99703.97;4971702;28;20042;-70
2023/09/21 08:42:55;;;;;;;98.07;93.80;;;;;;;22.83;48.98;99707.06;4970453;28;20061;-70
2023/09/21 08:45:22;;;;;;;97.63;93.38;;;;;;;22.82;49.32;99713.75;4970718;28;20187;-70
2023/09/21 08:47:48;;;;;;;97.28;92.97;;;;;;;;;;4960602;28;20043;-71
2023/09/21 08:50:14;;;;;;;101.80;97.40;;;;;;;22.81;49.28;99710.19;4966690;28;20051;-70
2023/09/21 08:52:44;;;;;;;96.05;91.88;;;;;;;22.81;49.41;99712.94;4964439;28;20043;-71
2023/09/21 08:55:11;;;;;;;100.45;96.15;;;;;;;22.79;49.10;99711.69;4961069;28;20085;-71
2023/09/21 08:57:37;;;;;;;98.32;93.93;;;;;;;22.80;49.13;99716.84;4961572;28;20043;-70
2023/09/21 09:00:08;;;;;;;99.07;94.57;;;;;;;22.79;49.38;99714.44;4961997;28;20417;-73
2023/09/21 09:02:37;;;;;;;103.82;99.03;;;;;;;22.77;49.62;99706.53;4963862;28;20031;-70
2023/09/21 09:05:07;;;;;;;97.28;92.93;;;;;;;22.77;49.62;99694.72;4960733;28;20089;-70
2023/09/21 09:07:39;;;;;;;97.03;92.75;;;;;;;22.76;49.47;99696.69;4964239;28;20480;-71
2023/09/21 09:10:10;;;;;;;96.78;92.55;;;;;;;22.76;49.49;99706.91;4965315;28;20083;-76
2023/09/21 09:12:35;;;;;;;98.18;93.68;;;;;;;22.75;49.39;99708.03;4959169;28;20112;-71
2023/09/21 09:15:03;;;;;;;97.80;93.53;;;;;;;22.75;49.30;99702.53;4954439;28;20050;-71
2023/09/21 09:17:30;;;;;;;97.22;92.72;;;;;;;22.75;49.18;99699.78;4965202;28;20066;-71
2023/09/21 09:19:57;;;;;;;98.30;94.00;;;;;;;22.74;49.16;99698.19;4966199;28;20058;-70
2023/09/21 09:22:23;;;;;;;102.60;98.00;;;;;;;22.73;49.57;99691.88;4955488;28;20042;-75
2023/09/21 09:24:49;;;;;;;95.75;91.50;;;;;;;22.72;49.70;99668.25;4952987;28;20454;-73
2023/09/21 09:27:15;;;;;;;95.65;91.38;;;;;;;22.72;49.20;99664.69;4954887;28;20039;-75
2023/09/21 09:29:53;;;;;;;97.00;92.75;;;;;;;22.71;49.50;99668.59;4966604;28;20042;-71
2023/09/21 09:32:19;;;;;;;95.77;91.63;;;;;;;22.69;49.16;99678.00;4957696;28;20487;-73
2023/09/21 09:34:48;;;;;;;95.95;91.80;;;;;;;22.69;49.66;99680.75;4957924;28;20290;-71
2023/09/21 09:37:15;;;;;;;99.03;94.50;;;;;;;22.68;49.42;99664.59;4970131;28;20185;-77
2023/09/21 09:39:45;;;;;;;98.88;94.47;;;;;;;22.68;49.78;99679.16;4964469;28;20130;-71
2023/09/21 09:42:13;;;;;;;97.85;93.55;;;;;;;22.67;49.26;99668.50;4956657;28;20066;-72
2023/09/21 09:44:47;;;;;;;96.90;92.50;;;;;;;22.67;49.53;99660.22;4963128;28;20046;-73
2023/09/21 09:47:18;;;;;;;99.65;95.20;;;;;;;22.66;49.81;99664.94;4968701;28;21502;-71
2023/09/21 09:49:48;;;;;;;95.47;91.30;;;;;;;22.66;49.68;99669.66;4958720;28;20122;-71
2023/09/21 09:52:16;;;;;;;97.03;92.82;;;;;;;22.65;49.48;99676.28;4948836;28;20038;-71
2023/09/21 09:54:42;;;;;;;97.57;93.22;;;;;;;22.64;50.02;99670.00;4960234;28;20483;-71
2023/09/21 09:57:13;;;;;;;97.20;92.93;;;;;;;22.65;49.60;99665.28;4966873;28;20061;-70
2023/09/21 09:59:41;;;;;;;97.75;93.45;;;;;;;22.65;49.86;99668.03;4965698;28;20042;-73
2023/09/21 10:02:11;;;;;;;101.07;96.55;;;;;;;22.64;49.42;99666.44;4962779;28;20039;-70
2023/09/21 10:04:38;;;;;;;97.40;93.10;;;;;;;22.64;49.50;99675.50;4968258;28;20043;-73
2023/09/21 10:07:04;;;;;;;97.15;92.85;;;;;;;22.63;49.61;99671.16;4952415;28;20028;-75
2023/09/21 10:09:31;;;;;;;96.35;92.07;;;;;;;22.63;49.88;99673.13;4963145;28;20035;-71
2023/09/21 10:11:58;;;;;;;96.82;92.43;;;;;;;22.62;50.00;99669.53;4963370;28;20128;-74
2023/09/21 10:14:24;;;;;;;96.00;91.80;;;;;;;22.61;50.04;99659.69;4970287;28;20114;-73
2023/09/21 10:16:54;;;;;;;96.28;91.90;;;;;;;22.61;49.54;99654.19;4967357;28;20447;-72
2023/09/21 10:19:28;;;;;;;96.70;92.50;;;;;;;22.62;49.98;99682.50;4968091;28;20041;-73
2023/09/21 10:21:59;;;;;;;99.00;94.50;;;;;;;22.60;49.47;99695.81;4964350;28;20151;-71
2023/09/21 10:24:29;;;;;;;96.75;92.45;;;;;;;22.59;49.38;99700.50;4963301;28;20106;-71
2023/09/21 10:26:58;;;;;;;96.95;92.60;;;;;;;22.59;49.41;99700.50;4952212;28;20035;-74
2023/09/21 10:29:36;;;;;;;99.75;95.35;;;;;;;22.58;49.55;99696.16;4962206;28;20147;-72
2023/09/21 10:32:06;;;;;;;98.72;94.32;;;;;;;22.57;49.52;99680.78;4960037;28;20064;-71
2023/09/21 10:34:31;;;;;;;93.78;89.45;;;;;;;22.57;49.47;99682.75;4961214;28;20036;-75
2023/09/21 10:37:12;;;;;;;95.55;91.35;;;;;;;22.56;49.42;99686.66;4952048;28;20547;-72
2023/09/21 10:39:39;;;;;;;94.97;90.78;;;;;;;22.55;49.43;99682.28;4952446;28;20030;-71
2023/09/21 10:42:05;;;;;;;96.63;92.22;;;;;;;22.54;49.83;99695.25;4958170;28;20035;-77
2023/09/21 10:45:07;;;;;;;96.25;92.10;;;;;;;22.51;49.53;99673.94;4955734;28;20047;-75
2023/09/21 10:47:35;;;;;;;98.53;94.10;;;;;;;22.52;50.04;99669.22;4959938;28;20065;-72
2023/09/21 10:50:11;;;;;;;95.55;91.32;;;;;;;22.52;49.63;99658.22;4950435;28;20054;-76
2023/09/21 10:52:41;;;;;;;98.70;94.28;;;;;;;22.52;49.62;99663.72;4957791;28;20035;-73
2023/09/21 10:55:09;;;;;;;94.05;89.95;;;;;;;22.52;49.51;99666.47;4962247;28;20133;-73
2023/09/21 10:57:35;;;;;;;97.32;92.75;;;;;;;22.51;49.75;99662.16;4956728;28;20498;-73
2023/09/21 11:00:04;;;;;;;99.90;95.50;;;;;;;22.51;49.46;99668.44;4963071;28;20090;-72
2023/09/21 11:02:31;;;;;;;97.03;92.78;;;;;;;22.51;49.40;99681.41;4961071;28;20053;-74
2023/09/21 11:04:58;;;;;;;96.13;91.82;;;;;;;22.50;49.92;99691.59;4956782;28;20110;-74
2023/09/21 11:07:24;;;;;;;97.30;93.05;;;;;;;22.51;49.92;99692.41;4956020;28;20121;-72
2023/09/21 11:09:50;;;;;;;97.25;92.88;;;;;;;22.50;49.85;99685.28;4959757;28;20113;-73